sensor_id;sensor_type;location;lat;lon;timestamp;temperature;humidity
70734;DHT22;58320;48.804;9.252;2023-03-08T00:01:11;4.10;53.90
70734;DHT22;58320;48.804;9.252;2023-03-08T00:03:39;4.10;54.00
70734;DHT22;58320;48.804;9.252;2023-03-08T00:06:10;4.20;54.00
70734;DHT22;58320;48.804;9.252;2023-03-08T00:08:38;4.20;53.90
70734;DHT22;58320;48.804;9.252;2023-03-08T00:11:05;4.20;53.90
70734;DHT22;58320;48.804;9.252;2023-03-08T00:13:32;4.30;53.80
70734;DHT22;58320;48.804;9.252;2023-03-08T00:16:02;4.30;54.00
70734;DHT22;58320;48.804;9.252;2023-03-08T00:18:29;4.30;53.90
70734;DHT22;58320;48.804;9.252;2023-03-08T00:21:06;4.30;53.80
70734;DHT22;58320;48.804;9.252;2023-03-08T00:23:33;4.30;53.60
70734;DHT22;58320;48.804;9.252;2023-03-08T00:25:59;4.40;53.80
70734;DHT22;58320;48.804;9.252;2023-03-08T00:28:25;4.40;53.80
70734;DHT22;58320;48.804;9.252;2023-03-08T00:30:58;4.40;53.70
70734;DHT22;58320;48.804;9.252;2023-03-08T00:33:24;4.40;53.80
70734;DHT22;58320;48.804;9.252;2023-03-08T00:36:09;4.40;53.90
70734;DHT22;58320;48.804;9.252;2023-03-08T00:38:38;4.40;53.90
70734;DHT22;58320;48.804;9.252;2023-03-08T00:41:04;4.40;54.00
70734;DHT22;58320;48.804;9.252;2023-03-08T00:43:30;4.40;54.20
70734;DHT22;58320;48.804;9.252;2023-03-08T00:45:56;4.40;54.20
70734;DHT22;58320;48.804;9.252;2023-03-08T00:48:22;4.30;54.10
70734;DHT22;58320;48.804;9.252;2023-03-08T00:50:48;4.30;54.20
70734;DHT22;58320;48.804;9.252;2023-03-08T00:53:14;4.30;54.40
70734;DHT22;58320;48.804;9.252;2023-03-08T00:55:51;4.30;54.60
70734;DHT22;58320;48.804;9.252;2023-03-08T00:58:18;4.30;54.60
70734;DHT22;58320;48.804;9.252;2023-03-08T01:00:44;4.30;54.70
70734;DHT22;58320;48.804;9.252;2023-03-08T01:03:10;4.30;54.60
70734;DHT22;58320;48.804;9.252;2023-03-08T01:05:41;4.30;54.70
70734;DHT22;58320;48.804;9.252;2023-03-08T01:08:09;4.40;54.50
70734;DHT22;58320;48.804;9.252;2023-03-08T01:10:35;4.40;54.60
70734;DHT22;58320;48.804;9.252;2023-03-08T01:13:01;4.40;54.80
70734;DHT22;58320;48.804;9.252;2023-03-08T01:15:28;4.30;54.80
70734;DHT22;58320;48.804;9.252;2023-03-08T01:17:53;4.30;54.70
70734;DHT22;58320;48.804;9.252;2023-03-08T01:20:19;4.20;55.00
70734;DHT22;58320;48.804;9.252;2023-03-08T01:22:45;4.20;55.20
70734;DHT22;58320;48.804;9.252;2023-03-08T01:25:10;4.20;55.40
70734;DHT22;58320;48.804;9.252;2023-03-08T01:27:36;4.10;55.70
70734;DHT22;58320;48.804;9.252;2023-03-08T01:30:03;4.00;56.20
70734;DHT22;58320;48.804;9.252;2023-03-08T01:32:29;3.90;56.50
70734;DHT22;58320;48.804;9.252;2023-03-08T01:34:54;3.80;56.70
70734;DHT22;58320;48.804;9.252;2023-03-08T01:37:20;3.80;57.20
70734;DHT22;58320;48.804;9.252;2023-03-08T01:39:46;3.70;57.20
70734;DHT22;58320;48.804;9.252;2023-03-08T01:42:12;3.70;57.30
70734;DHT22;58320;48.804;9.252;2023-03-08T01:44:57;3.70;57.40
70734;DHT22;58320;48.804;9.252;2023-03-08T01:47:29;3.70;57.40
70734;DHT22;58320;48.804;9.252;2023-03-08T01:50:07;3.70;57.60
70734;DHT22;58320;48.804;9.252;2023-03-08T01:52:41;3.70;57.70
70734;DHT22;58320;48.804;9.252;2023-03-08T01:55:11;3.60;57.90
70734;DHT22;58320;48.804;9.252;2023-03-08T01:57:47;3.60;57.90
70734;DHT22;58320;48.804;9.252;2023-03-08T02:00:20;3.50;57.90
70734;DHT22;58320;48.804;9.252;2023-03-08T02:05:17;3.40;58.40
70734;DHT22;58320;48.804;9.252;2023-03-08T02:07:44;3.40;58.40
70734;DHT22;58320;48.804;9.252;2023-03-08T02:10:11;3.40;58.30
70734;DHT22;58320;48.804;9.252;2023-03-08T02:12:39;3.40;58.60
70734;DHT22;58320;48.804;9.252;2023-03-08T02:15:07;3.30;58.70
70734;DHT22;58320;48.804;9.252;2023-03-08T02:17:37;3.30;58.90
70734;DHT22;58320;48.804;9.252;2023-03-08T02:20:31;3.30;59.00
70734;DHT22;58320;48.804;9.252;2023-03-08T02:23:20;3.20;59.10
70734;DHT22;58320;48.804;9.252;2023-03-08T02:25:56;3.30;59.10
70734;DHT22;58320;48.804;9.252;2023-03-08T02:28:25;3.30;59.00
70734;DHT22;58320;48.804;9.252;2023-03-08T02:30:52;3.30;58.90
70734;DHT22;58320;48.804;9.252;2023-03-08T02:33:19;3.30;59.00
70734;DHT22;58320;48.804;9.252;2023-03-08T02:35:45;3.30;59.00
70734;DHT22;58320;48.804;9.252;2023-03-08T02:38:14;3.30;58.90
70734;DHT22;58320;48.804;9.252;2023-03-08T02:40:41;3.30;59.00
70734;DHT22;58320;48.804;9.252;2023-03-08T02:43:07;3.30;59.00
70734;DHT22;58320;48.804;9.252;2023-03-08T02:45:33;3.30;59.00
70734;DHT22;58320;48.804;9.252;2023-03-08T02:48:00;3.40;58.70
70734;DHT22;58320;48.804;9.252;2023-03-08T02:50:27;3.40;58.90
70734;DHT22;58320;48.804;9.252;2023-03-08T02:52:53;3.40;58.70
70734;DHT22;58320;48.804;9.252;2023-03-08T02:55:18;3.40;58.90
70734;DHT22;58320;48.804;9.252;2023-03-08T02:57:44;3.30;58.80
70734;DHT22;58320;48.804;9.252;2023-03-08T03:00:10;3.30;59.00
70734;DHT22;58320;48.804;9.252;2023-03-08T03:02:36;3.30;59.20
70734;DHT22;58320;48.804;9.252;2023-03-08T03:05:07;3.30;59.20
70734;DHT22;58320;48.804;9.252;2023-03-08T03:07:37;3.30;59.10
70734;DHT22;58320;48.804;9.252;2023-03-08T03:10:04;3.30;59.30
70734;DHT22;58320;48.804;9.252;2023-03-08T03:12:30;3.30;59.10
70734;DHT22;58320;48.804;9.252;2023-03-08T03:14:56;3.30;59.40
70734;DHT22;58320;48.804;9.252;2023-03-08T03:17:22;3.30;59.20
70734;DHT22;58320;48.804;9.252;2023-03-08T03:19:47;3.30;59.20
70734;DHT22;58320;48.804;9.252;2023-03-08T03:22:13;3.30;59.10
70734;DHT22;58320;48.804;9.252;2023-03-08T03:24:39;3.30;59.30
70734;DHT22;58320;48.804;9.252;2023-03-08T03:27:05;3.30;59.00
70734;DHT22;58320;48.804;9.252;2023-03-08T03:29:31;3.30;58.80
70734;DHT22;58320;48.804;9.252;2023-03-08T03:31:56;3.40;58.70
70734;DHT22;58320;48.804;9.252;2023-03-08T03:34:22;3.40;58.70
70734;DHT22;58320;48.804;9.252;2023-03-08T03:36:48;3.40;58.60
70734;DHT22;58320;48.804;9.252;2023-03-08T03:39:14;3.40;58.60
70734;DHT22;58320;48.804;9.252;2023-03-08T03:41:40;3.40;58.40
70734;DHT22;58320;48.804;9.252;2023-03-08T03:44:06;3.40;58.40
70734;DHT22;58320;48.804;9.252;2023-03-08T03:46:31;3.50;58.20
70734;DHT22;58320;48.804;9.252;2023-03-08T03:48:57;3.50;58.30
70734;DHT22;58320;48.804;9.252;2023-03-08T03:51:23;3.50;58.30
70734;DHT22;58320;48.804;9.252;2023-03-08T03:53:49;3.40;58.20
70734;DHT22;58320;48.804;9.252;2023-03-08T03:56:17;3.40;58.50
70734;DHT22;58320;48.804;9.252;2023-03-08T03:58:45;3.40;58.60
70734;DHT22;58320;48.804;9.252;2023-03-08T04:01:25;3.40;58.60
70734;DHT22;58320;48.804;9.252;2023-03-08T04:03:53;3.40;58.50
70734;DHT22;58320;48.804;9.252;2023-03-08T04:08:51;3.40;58.80
70734;DHT22;58320;48.804;9.252;2023-03-08T04:11:21;3.40;58.90
70734;DHT22;58320;48.804;9.252;2023-03-08T04:13:48;3.30;59.30
70734;DHT22;58320;48.804;9.252;2023-03-08T04:16:19;3.40;58.90
70734;DHT22;58320;48.804;9.252;2023-03-08T04:18:47;3.40;58.90
70734;DHT22;58320;48.804;9.252;2023-03-08T04:21:13;3.40;58.70
70734;DHT22;58320;48.804;9.252;2023-03-08T04:23:39;3.40;58.60
70734;DHT22;58320;48.804;9.252;2023-03-08T04:26:06;3.40;58.90
70734;DHT22;58320;48.804;9.252;2023-03-08T04:28:32;3.50;58.80
70734;DHT22;58320;48.804;9.252;2023-03-08T04:30:59;3.50;58.60
70734;DHT22;58320;48.804;9.252;2023-03-08T04:33:34;3.60;58.40
70734;DHT22;58320;48.804;9.252;2023-03-08T04:36:00;3.60;58.30
70734;DHT22;58320;48.804;9.252;2023-03-08T04:38:26;3.60;58.30
70734;DHT22;58320;48.804;9.252;2023-03-08T04:40:52;3.60;58.30
70734;DHT22;58320;48.804;9.252;2023-03-08T04:43:27;3.60;58.40
70734;DHT22;58320;48.804;9.252;2023-03-08T04:45:53;3.60;58.20
70734;DHT22;58320;48.804;9.252;2023-03-08T04:48:19;3.60;58.50
70734;DHT22;58320;48.804;9.252;2023-03-08T04:50:52;3.70;58.60
70734;DHT22;58320;48.804;9.252;2023-03-08T04:53:22;3.70;58.20
70734;DHT22;58320;48.804;9.252;2023-03-08T04:55:48;3.70;58.20
70734;DHT22;58320;48.804;9.252;2023-03-08T04:58:15;3.70;58.30
70734;DHT22;58320;48.804;9.252;2023-03-08T05:00:41;3.70;58.30
70734;DHT22;58320;48.804;9.252;2023-03-08T05:03:07;3.70;58.20
70734;DHT22;58320;48.804;9.252;2023-03-08T05:05:33;3.70;58.20
70734;DHT22;58320;48.804;9.252;2023-03-08T05:07:59;3.80;58.20
70734;DHT22;58320;48.804;9.252;2023-03-08T05:10:28;3.80;58.20
70734;DHT22;58320;48.804;9.252;2023-03-08T05:12:54;3.80;58.30
70734;DHT22;58320;48.804;9.252;2023-03-08T05:15:20;3.80;58.30
70734;DHT22;58320;48.804;9.252;2023-03-08T05:17:48;3.80;57.90
70734;DHT22;58320;48.804;9.252;2023-03-08T05:20:14;3.80;58.10
70734;DHT22;58320;48.804;9.252;2023-03-08T05:22:40;3.80;58.10
70734;DHT22;58320;48.804;9.252;2023-03-08T05:25:06;3.80;58.00
70734;DHT22;58320;48.804;9.252;2023-03-08T05:27:35;3.90;58.10
70734;DHT22;58320;48.804;9.252;2023-03-08T05:30:03;3.80;58.20
70734;DHT22;58320;48.804;9.252;2023-03-08T05:32:30;3.90;58.10
70734;DHT22;58320;48.804;9.252;2023-03-08T05:34:56;3.90;58.20
70734;DHT22;58320;48.804;9.252;2023-03-08T05:37:21;4.00;57.90
70734;DHT22;58320;48.804;9.252;2023-03-08T05:39:50;4.00;57.70
70734;DHT22;58320;48.804;9.252;2023-03-08T05:42:17;4.10;57.60
70734;DHT22;58320;48.804;9.252;2023-03-08T05:44:43;4.10;57.60
70734;DHT22;58320;48.804;9.252;2023-03-08T05:47:09;4.10;57.50
70734;DHT22;58320;48.804;9.252;2023-03-08T05:49:34;4.10;57.30
70734;DHT22;58320;48.804;9.252;2023-03-08T05:52:00;4.20;57.00
70734;DHT22;58320;48.804;9.252;2023-03-08T05:54:26;4.20;57.30
70734;DHT22;58320;48.804;9.252;2023-03-08T05:56:52;4.20;57.40
70734;DHT22;58320;48.804;9.252;2023-03-08T05:59:17;4.20;57.50
70734;DHT22;58320;48.804;9.252;2023-03-08T06:01:43;4.20;57.50
70734;DHT22;58320;48.804;9.252;2023-03-08T06:04:09;4.30;57.30
70734;DHT22;58320;48.804;9.252;2023-03-08T06:06:35;4.30;57.30
70734;DHT22;58320;48.804;9.252;2023-03-08T06:09:00;4.30;57.50
70734;DHT22;58320;48.804;9.252;2023-03-08T06:11:26;4.20;57.80
70734;DHT22;58320;48.804;9.252;2023-03-08T06:13:52;4.20;58.00
70734;DHT22;58320;48.804;9.252;2023-03-08T06:16:18;4.20;58.00
70734;DHT22;58320;48.804;9.252;2023-03-08T06:18:44;4.30;57.90
70734;DHT22;58320;48.804;9.252;2023-03-08T06:21:15;4.30;58.00
70734;DHT22;58320;48.804;9.252;2023-03-08T06:23:42;4.30;58.00
70734;DHT22;58320;48.804;9.252;2023-03-08T06:26:10;4.30;58.10
70734;DHT22;58320;48.804;9.252;2023-03-08T06:28:36;4.30;58.20
70734;DHT22;58320;48.804;9.252;2023-03-08T06:31:04;4.30;58.10
70734;DHT22;58320;48.804;9.252;2023-03-08T06:33:32;4.30;58.10
70734;DHT22;58320;48.804;9.252;2023-03-08T06:36:07;4.30;57.80
70734;DHT22;58320;48.804;9.252;2023-03-08T06:38:38;4.30;57.90
70734;DHT22;58320;48.804;9.252;2023-03-08T06:41:06;4.30;57.80
70734;DHT22;58320;48.804;9.252;2023-03-08T06:43:33;4.30;58.10
70734;DHT22;58320;48.804;9.252;2023-03-08T06:46:08;4.30;57.80
70734;DHT22;58320;48.804;9.252;2023-03-08T06:48:36;4.30;57.60
70734;DHT22;58320;48.804;9.252;2023-03-08T06:51:03;4.30;57.70
70734;DHT22;58320;48.804;9.252;2023-03-08T06:53:30;4.30;57.60
70734;DHT22;58320;48.804;9.252;2023-03-08T06:55:56;4.30;57.60
70734;DHT22;58320;48.804;9.252;2023-03-08T06:58:22;4.40;57.50
70734;DHT22;58320;48.804;9.252;2023-03-08T07:00:48;4.40;57.40
70734;DHT22;58320;48.804;9.252;2023-03-08T07:03:14;4.50;57.00
70734;DHT22;58320;48.804;9.252;2023-03-08T07:05:40;4.50;57.20
70734;DHT22;58320;48.804;9.252;2023-03-08T07:08:06;4.50;57.20
70734;DHT22;58320;48.804;9.252;2023-03-08T07:10:32;4.50;57.00
70734;DHT22;58320;48.804;9.252;2023-03-08T07:12:58;4.50;57.00
70734;DHT22;58320;48.804;9.252;2023-03-08T07:15:25;4.50;56.90
70734;DHT22;58320;48.804;9.252;2023-03-08T07:17:52;4.50;56.90
70734;DHT22;58320;48.804;9.252;2023-03-08T07:20:20;4.50;56.90
70734;DHT22;58320;48.804;9.252;2023-03-08T07:22:47;4.60;57.00
70734;DHT22;58320;48.804;9.252;2023-03-08T07:25:15;4.60;57.10
70734;DHT22;58320;48.804;9.252;2023-03-08T07:27:42;4.60;57.10
70734;DHT22;58320;48.804;9.252;2023-03-08T07:30:09;4.70;57.00
70734;DHT22;58320;48.804;9.252;2023-03-08T07:32:37;4.70;57.00
70734;DHT22;58320;48.804;9.252;2023-03-08T07:35:05;4.70;56.90
70734;DHT22;58320;48.804;9.252;2023-03-08T07:37:32;4.70;57.40
70734;DHT22;58320;48.804;9.252;2023-03-08T07:39:58;4.70;57.30
70734;DHT22;58320;48.804;9.252;2023-03-08T07:42:24;4.80;57.40
70734;DHT22;58320;48.804;9.252;2023-03-08T07:44:51;4.80;57.50
70734;DHT22;58320;48.804;9.252;2023-03-08T07:47:18;4.80;57.50
70734;DHT22;58320;48.804;9.252;2023-03-08T07:49:44;4.90;57.40
70734;DHT22;58320;48.804;9.252;2023-03-08T07:52:10;4.90;57.30
70734;DHT22;58320;48.804;9.252;2023-03-08T07:54:36;4.90;57.60
70734;DHT22;58320;48.804;9.252;2023-03-08T07:57:02;4.90;57.20
70734;DHT22;58320;48.804;9.252;2023-03-08T07:59:28;4.90;57.70
70734;DHT22;58320;48.804;9.252;2023-03-08T08:01:54;4.90;57.80
70734;DHT22;58320;48.804;9.252;2023-03-08T08:04:19;5.00;57.90
70734;DHT22;58320;48.804;9.252;2023-03-08T08:06:47;5.00;58.20
70734;DHT22;58320;48.804;9.252;2023-03-08T08:09:13;5.10;58.40
70734;DHT22;58320;48.804;9.252;2023-03-08T08:11:40;5.10;58.90
70734;DHT22;58320;48.804;9.252;2023-03-08T08:14:06;5.20;59.20
70734;DHT22;58320;48.804;9.252;2023-03-08T08:16:32;5.30;59.10
70734;DHT22;58320;48.804;9.252;2023-03-08T08:18:58;5.30;59.40
70734;DHT22;58320;48.804;9.252;2023-03-08T08:21:24;5.40;59.60
70734;DHT22;58320;48.804;9.252;2023-03-08T08:23:50;5.50;59.50
70734;DHT22;58320;48.804;9.252;2023-03-08T08:26:18;5.40;60.80
70734;DHT22;58320;48.804;9.252;2023-03-08T08:28:48;5.40;61.80
70734;DHT22;58320;48.804;9.252;2023-03-08T08:31:18;5.40;62.30
70734;DHT22;58320;48.804;9.252;2023-03-08T08:33:46;5.40;62.40
70734;DHT22;58320;48.804;9.252;2023-03-08T08:36:15;5.30;63.50
70734;DHT22;58320;48.804;9.252;2023-03-08T08:38:42;5.30;63.80
70734;DHT22;58320;48.804;9.252;2023-03-08T08:41:11;5.40;63.10
70734;DHT22;58320;48.804;9.252;2023-03-08T08:43:40;5.40;63.10
70734;DHT22;58320;48.804;9.252;2023-03-08T08:46:06;5.50;64.30
70734;DHT22;58320;48.804;9.252;2023-03-08T08:48:33;5.50;65.00
70734;DHT22;58320;48.804;9.252;2023-03-08T08:50:59;5.50;66.40
70734;DHT22;58320;48.804;9.252;2023-03-08T08:53:25;5.50;66.90
70734;DHT22;58320;48.804;9.252;2023-03-08T08:55:51;5.50;67.90
70734;DHT22;58320;48.804;9.252;2023-03-08T08:58:17;5.50;67.30
70734;DHT22;58320;48.804;9.252;2023-03-08T09:00:43;5.70;68.90
70734;DHT22;58320;48.804;9.252;2023-03-08T09:03:09;5.70;69.10
70734;DHT22;58320;48.804;9.252;2023-03-08T09:05:41;5.80;69.10
70734;DHT22;58320;48.804;9.252;2023-03-08T09:08:09;5.80;69.60
70734;DHT22;58320;48.804;9.252;2023-03-08T09:10:37;5.80;68.70
70734;DHT22;58320;48.804;9.252;2023-03-08T09:13:04;5.80;68.50
70734;DHT22;58320;48.804;9.252;2023-03-08T09:15:30;5.70;67.10
70734;DHT22;58320;48.804;9.252;2023-03-08T09:17:56;5.70;67.90
70734;DHT22;58320;48.804;9.252;2023-03-08T09:20:22;5.80;66.90
70734;DHT22;58320;48.804;9.252;2023-03-08T09:22:48;5.80;66.60
70734;DHT22;58320;48.804;9.252;2023-03-08T09:25:14;5.70;65.70
70734;DHT22;58320;48.804;9.252;2023-03-08T09:27:41;5.70;66.00
70734;DHT22;58320;48.804;9.252;2023-03-08T09:30:15;5.70;66.40
70734;DHT22;58320;48.804;9.252;2023-03-08T09:32:41;5.60;66.80
70734;DHT22;58320;48.804;9.252;2023-03-08T09:35:07;5.70;65.90
70734;DHT22;58320;48.804;9.252;2023-03-08T09:37:34;5.70;66.60
70734;DHT22;58320;48.804;9.252;2023-03-08T09:40:00;5.90;66.40
70734;DHT22;58320;48.804;9.252;2023-03-08T09:42:29;6.00;65.60
70734;DHT22;58320;48.804;9.252;2023-03-08T09:45:17;6.00;65.90
70734;DHT22;58320;48.804;9.252;2023-03-08T09:50:50;6.40;63.70
70734;DHT22;58320;48.804;9.252;2023-03-08T09:53:31;6.60;63.70
70734;DHT22;58320;48.804;9.252;2023-03-08T09:56:20;6.50;63.90
70734;DHT22;58320;48.804;9.252;2023-03-08T09:58:54;6.60;62.90
70734;DHT22;58320;48.804;9.252;2023-03-08T10:01:59;6.70;62.40
70734;DHT22;58320;48.804;9.252;2023-03-08T10:04:34;6.80;63.20
70734;DHT22;58320;48.804;9.252;2023-03-08T10:21:42;7.30;61.30
70734;DHT22;58320;48.804;9.252;2023-03-08T10:24:20;7.40;61.30
70734;DHT22;58320;48.804;9.252;2023-03-08T10:26:53;7.40;61.00
70734;DHT22;58320;48.804;9.252;2023-03-08T10:29:19;7.30;61.50
70734;DHT22;58320;48.804;9.252;2023-03-08T10:31:46;7.40;61.70
70734;DHT22;58320;48.804;9.252;2023-03-08T10:34:18;7.40;61.80
70734;DHT22;58320;48.804;9.252;2023-03-08T10:37:12;7.30;62.10
70734;DHT22;58320;48.804;9.252;2023-03-08T10:39:53;7.30;62.60
70734;DHT22;58320;48.804;9.252;2023-03-08T10:42:23;7.30;62.70
70734;DHT22;58320;48.804;9.252;2023-03-08T10:50:11;7.70;64.50
70734;DHT22;58320;48.804;9.252;2023-03-08T10:52:42;8.00;64.20
70734;DHT22;58320;48.804;9.252;2023-03-08T10:57:55;8.60;64.60
70734;DHT22;58320;48.804;9.252;2023-03-08T11:00:36;9.00;64.00
70734;DHT22;58320;48.804;9.252;2023-03-08T11:03:21;9.40;64.80
70734;DHT22;58320;48.804;9.252;2023-03-08T11:06:02;9.80;65.10
70734;DHT22;58320;48.804;9.252;2023-03-08T11:08:37;10.20;64.10
70734;DHT22;58320;48.804;9.252;2023-03-08T11:13:44;10.50;63.80
70734;DHT22;58320;48.804;9.252;2023-03-08T11:19:37;11.10;62.60
70734;DHT22;58320;48.804;9.252;2023-03-08T11:22:44;11.40;61.40
70734;DHT22;58320;48.804;9.252;2023-03-08T11:25:32;11.50;61.30
70734;DHT22;58320;48.804;9.252;2023-03-08T11:28:11;11.30;62.30
70734;DHT22;58320;48.804;9.252;2023-03-08T11:33:53;11.10;63.40
70734;DHT22;58320;48.804;9.252;2023-03-08T11:37:55;11.10;63.50
70734;DHT22;58320;48.804;9.252;2023-03-08T11:40:40;10.90;64.20
70734;DHT22;58320;48.804;9.252;2023-03-08T11:54:55;11.60;62.60
70734;DHT22;58320;48.804;9.252;2023-03-08T11:57:30;11.60;62.50
70734;DHT22;58320;48.804;9.252;2023-03-08T12:00:04;11.50;62.90
70734;DHT22;58320;48.804;9.252;2023-03-08T12:02:42;11.50;62.90
70734;DHT22;58320;48.804;9.252;2023-03-08T12:06:03;11.50;63.20
70734;DHT22;58320;48.804;9.252;2023-03-08T12:08:22;11.50;63.00
70734;DHT22;58320;48.804;9.252;2023-03-08T12:10:59;11.50;63.10
70734;DHT22;58320;48.804;9.252;2023-03-08T12:13:33;11.50;63.30
70734;DHT22;58320;48.804;9.252;2023-03-08T12:16:25;11.50;63.70
70734;DHT22;58320;48.804;9.252;2023-03-08T12:19:04;11.60;63.20
70734;DHT22;58320;48.804;9.252;2023-03-08T12:21:36;11.70;63.20
70734;DHT22;58320;48.804;9.252;2023-03-08T12:24:17;11.80;63.00
70734;DHT22;58320;48.804;9.252;2023-03-08T12:27:05;11.90;62.90
70734;DHT22;58320;48.804;9.252;2023-03-08T12:32:19;12.10;62.80
70734;DHT22;58320;48.804;9.252;2023-03-08T12:34:47;12.10;62.40
70734;DHT22;58320;48.804;9.252;2023-03-08T12:37:27;12.00;62.80
70734;DHT22;58320;48.804;9.252;2023-03-08T12:42:33;12.00;63.00
70734;DHT22;58320;48.804;9.252;2023-03-08T12:45:25;12.00;63.20
70734;DHT22;58320;48.804;9.252;2023-03-08T12:50:33;11.90;63.60
70734;DHT22;58320;48.804;9.252;2023-03-08T12:53:00;12.10;63.30
70734;DHT22;58320;48.804;9.252;2023-03-08T12:55:28;12.10;63.30
70734;DHT22;58320;48.804;9.252;2023-03-08T12:57:59;12.20;63.00
70734;DHT22;58320;48.804;9.252;2023-03-08T13:00:32;12.40;62.80
70734;DHT22;58320;48.804;9.252;2023-03-08T13:03:26;12.50;62.20
70734;DHT22;58320;48.804;9.252;2023-03-08T13:07:18;12.40;62.50
70734;DHT22;58320;48.804;9.252;2023-03-08T13:17:52;12.50;62.80
70734;DHT22;58320;48.804;9.252;2023-03-08T13:20:24;12.40;63.10
70734;DHT22;58320;48.804;9.252;2023-03-08T13:28:48;12.90;62.10
70734;DHT22;58320;48.804;9.252;2023-03-08T13:31:22;13.10;61.50
70734;DHT22;58320;48.804;9.252;2023-03-08T13:33:56;13.30;60.70
70734;DHT22;58320;48.804;9.252;2023-03-08T13:36:30;13.60;60.00
70734;DHT22;58320;48.804;9.252;2023-03-08T13:39:05;13.80;59.50
70734;DHT22;58320;48.804;9.252;2023-03-08T13:41:40;13.90;59.30
70734;DHT22;58320;48.804;9.252;2023-03-08T13:44:22;13.90;59.30
70734;DHT22;58320;48.804;9.252;2023-03-08T13:46:52;13.90;59.40
70734;DHT22;58320;48.804;9.252;2023-03-08T13:49:35;14.20;59.10
70734;DHT22;58320;48.804;9.252;2023-03-08T13:52:04;14.20;58.40
70734;DHT22;58320;48.804;9.252;2023-03-08T13:54:49;14.50;58.20
70734;DHT22;58320;48.804;9.252;2023-03-08T13:57:31;14.40;58.60
70734;DHT22;58320;48.804;9.252;2023-03-08T14:03:04;14.00;59.50
70734;DHT22;58320;48.804;9.252;2023-03-08T14:05:40;13.90;59.40
70734;DHT22;58320;48.804;9.252;2023-03-08T14:08:17;13.80;59.90
70734;DHT22;58320;48.804;9.252;2023-03-08T14:10:56;13.80;59.60
70734;DHT22;58320;48.804;9.252;2023-03-08T14:13:31;14.10;59.00
70734;DHT22;58320;48.804;9.252;2023-03-08T14:16:25;14.30;58.50
70734;DHT22;58320;48.804;9.252;2023-03-08T14:18:55;14.70;57.60
70734;DHT22;58320;48.804;9.252;2023-03-08T14:21:27;14.90;56.80
70734;DHT22;58320;48.804;9.252;2023-03-08T14:23:57;14.60;57.00
70734;DHT22;58320;48.804;9.252;2023-03-08T14:26:32;14.30;58.00
70734;DHT22;58320;48.804;9.252;2023-03-08T14:29:19;13.90;59.30
70734;DHT22;58320;48.804;9.252;2023-03-08T14:42:59;13.30;61.50
70734;DHT22;58320;48.804;9.252;2023-03-08T14:45:35;13.40;62.80
70734;DHT22;58320;48.804;9.252;2023-03-08T14:48:29;13.50;61.70
70734;DHT22;58320;48.804;9.252;2023-03-08T14:51:23;13.40;61.50
70734;DHT22;58320;48.804;9.252;2023-03-08T14:54:00;13.40;61.70
70734;DHT22;58320;48.804;9.252;2023-03-08T14:56:29;13.20;65.60
70734;DHT22;58320;48.804;9.252;2023-03-08T14:58:59;12.90;65.10
70734;DHT22;58320;48.804;9.252;2023-03-08T15:01:31;12.60;65.20
70734;DHT22;58320;48.804;9.252;2023-03-08T15:03:59;12.60;65.20
70734;DHT22;58320;48.804;9.252;2023-03-08T15:06:35;12.70;64.90
70734;DHT22;58320;48.804;9.252;2023-03-08T15:09:02;12.80;64.60
70734;DHT22;58320;48.804;9.252;2023-03-08T15:11:30;12.90;64.80
70734;DHT22;58320;48.804;9.252;2023-03-08T15:14:00;13.00;64.60
70734;DHT22;58320;48.804;9.252;2023-03-08T15:16:26;13.00;64.70
70734;DHT22;58320;48.804;9.252;2023-03-08T15:18:52;13.20;64.80
70734;DHT22;58320;48.804;9.252;2023-03-08T15:21:23;13.20;64.50
70734;DHT22;58320;48.804;9.252;2023-03-08T15:23:51;13.30;64.30
70734;DHT22;58320;48.804;9.252;2023-03-08T15:26:22;13.70;63.00
70734;DHT22;58320;48.804;9.252;2023-03-08T15:28:50;14.40;61.20
70734;DHT22;58320;48.804;9.252;2023-03-08T15:31:16;15.30;58.30
70734;DHT22;58320;48.804;9.252;2023-03-08T15:33:41;15.20;58.60
70734;DHT22;58320;48.804;9.252;2023-03-08T15:36:16;15.40;58.00
70734;DHT22;58320;48.804;9.252;2023-03-08T15:38:43;15.10;58.50
70734;DHT22;58320;48.804;9.252;2023-03-08T15:41:13;14.60;59.90
70734;DHT22;58320;48.804;9.252;2023-03-08T15:43:40;14.00;61.60
70734;DHT22;58320;48.804;9.252;2023-03-08T15:46:10;13.70;62.90
70734;DHT22;58320;48.804;9.252;2023-03-08T15:48:37;13.40;63.70
70734;DHT22;58320;48.804;9.252;2023-03-08T15:51:03;13.20;64.40
70734;DHT22;58320;48.804;9.252;2023-03-08T15:53:28;13.10;65.00
70734;DHT22;58320;48.804;9.252;2023-03-08T15:55:55;13.10;65.00
70734;DHT22;58320;48.804;9.252;2023-03-08T15:58:20;13.10;64.90
70734;DHT22;58320;48.804;9.252;2023-03-08T16:00:46;13.00;65.10
70734;DHT22;58320;48.804;9.252;2023-03-08T16:03:14;12.90;65.30
70734;DHT22;58320;48.804;9.252;2023-03-08T16:05:50;12.90;65.60
70734;DHT22;58320;48.804;9.252;2023-03-08T16:08:16;12.90;65.50
70734;DHT22;58320;48.804;9.252;2023-03-08T16:10:42;12.90;65.60
70734;DHT22;58320;48.804;9.252;2023-03-08T16:13:08;12.80;65.80
70734;DHT22;58320;48.804;9.252;2023-03-08T16:15:34;12.80;65.90
70734;DHT22;58320;48.804;9.252;2023-03-08T16:18:03;12.80;66.00
70734;DHT22;58320;48.804;9.252;2023-03-08T16:20:29;12.80;65.80
70734;DHT22;58320;48.804;9.252;2023-03-08T16:22:55;12.70;65.90
70734;DHT22;58320;48.804;9.252;2023-03-08T16:25:21;12.70;65.70
70734;DHT22;58320;48.804;9.252;2023-03-08T16:27:47;12.70;65.80
70734;DHT22;58320;48.804;9.252;2023-03-08T16:30:13;12.70;67.10
70734;DHT22;58320;48.804;9.252;2023-03-08T16:32:39;12.50;68.40
70734;DHT22;58320;48.804;9.252;2023-03-08T16:35:05;12.20;70.30
70734;DHT22;58320;48.804;9.252;2023-03-08T16:37:31;11.90;73.20
70734;DHT22;58320;48.804;9.252;2023-03-08T16:39:56;11.50;73.90
70734;DHT22;58320;48.804;9.252;2023-03-08T16:42:27;11.40;73.60
70734;DHT22;58320;48.804;9.252;2023-03-08T16:44:54;11.50;72.50
70734;DHT22;58320;48.804;9.252;2023-03-08T16:47:21;11.60;72.40
70734;DHT22;58320;48.804;9.252;2023-03-08T16:49:48;11.70;72.20
70734;DHT22;58320;48.804;9.252;2023-03-08T16:52:15;11.80;71.50
70734;DHT22;58320;48.804;9.252;2023-03-08T16:54:42;11.80;71.40
70734;DHT22;58320;48.804;9.252;2023-03-08T16:57:12;11.80;71.50
70734;DHT22;58320;48.804;9.252;2023-03-08T16:59:39;11.80;71.70
70734;DHT22;58320;48.804;9.252;2023-03-08T17:02:27;11.80;73.10
70734;DHT22;58320;48.804;9.252;2023-03-08T17:04:52;11.70;74.50
70734;DHT22;58320;48.804;9.252;2023-03-08T17:07:18;11.50;75.00
70734;DHT22;58320;48.804;9.252;2023-03-08T17:09:43;11.40;75.80
70734;DHT22;58320;48.804;9.252;2023-03-08T17:12:10;11.30;76.40
70734;DHT22;58320;48.804;9.252;2023-03-08T17:14:36;11.20;77.00
70734;DHT22;58320;48.804;9.252;2023-03-08T17:17:03;11.10;76.80
70734;DHT22;58320;48.804;9.252;2023-03-08T17:19:29;11.10;76.80
70734;DHT22;58320;48.804;9.252;2023-03-08T17:21:55;11.20;76.50
70734;DHT22;58320;48.804;9.252;2023-03-08T17:24:21;11.30;76.10
70734;DHT22;58320;48.804;9.252;2023-03-08T17:26:48;11.30;75.70